sensor_id;sensor_type;location;lat;lon;timestamp;pressure;altitude;pressure_sealevel;temperature;humidity
10482;BME280;5288;42.334;23.876;2023-06-14T00:01:23;56247.06;;;-140.56;93.36
10482;BME280;5288;42.334;23.876;2023-06-14T00:03:50;56272.75;;;-140.56;93.59
10482;BME280;5288;42.334;23.876;2023-06-14T00:06:18;56243.13;;;-140.56;93.81
10482;BME280;5288;42.334;23.876;2023-06-14T00:08:45;56249.03;;;-140.56;94.45
10482;BME280;5288;42.334;23.876;2023-06-14T00:11:13;56247.06;;;-140.56;94.55
10482;BME280;5288;42.334;23.876;2023-06-14T00:13:40;56243.13;;;-140.56;94.69
10482;BME280;5288;42.334;23.876;2023-06-14T00:16:08;56262.88;;;-140.56;94.54
10482;BME280;5288;42.334;23.876;2023-06-14T00:18:35;56247.06;;;-140.56;94.28
10482;BME280;5288;42.334;23.876;2023-06-14T00:21:03;56284.63;;;-140.56;94.50
10482;BME280;5288;42.334;23.876;2023-06-14T00:23:30;56264.84;;;-140.56;94.81
10482;BME280;5288;42.334;23.876;2023-06-14T00:25:57;56264.84;;;-140.56;94.55
10482;BME280;5288;42.334;23.876;2023-06-14T00:28:26;56262.88;;;-140.56;94.70
10482;BME280;5288;42.334;23.876;2023-06-14T00:30:53;56247.06;;;-140.56;94.98
10482;BME280;5288;42.334;23.876;2023-06-14T00:33:20;56231.25;;;-140.56;94.60
10482;BME280;5288;42.334;23.876;2023-06-14T00:35:47;56258.94;;;-140.56;94.45
10482;BME280;5288;42.334;23.876;2023-06-14T00:38:14;56258.94;;;-140.56;94.58
10482;BME280;5288;42.334;23.876;2023-06-14T00:40:41;56249.03;;;-140.56;94.59
10482;BME280;5288;42.334;23.876;2023-06-14T00:43:08;56274.72;;;-140.56;95.24
10482;BME280;5288;42.334;23.876;2023-06-14T00:45:36;56262.88;;;-140.56;94.88
10482;BME280;5288;42.334;23.876;2023-06-14T00:48:04;56235.22;;;-140.56;95.40
10482;BME280;5288;42.334;23.876;2023-06-14T00:50:33;56262.88;;;-140.56;94.76
10482;BME280;5288;42.334;23.876;2023-06-14T00:53:00;56254.97;;;-140.56;94.62
10482;BME280;5288;42.334;23.876;2023-06-14T00:55:28;56249.03;;;-140.56;94.23
10482;BME280;5288;42.334;23.876;2023-06-14T00:57:55;56264.84;;;-140.56;94.18
10482;BME280;5288;42.334;23.876;2023-06-14T01:00:22;56264.84;;;-140.56;94.95
10482;BME280;5288;42.334;23.876;2023-06-14T01:02:51;56254.97;;;-140.56;96.08
10482;BME280;5288;42.334;23.876;2023-06-14T01:05:19;56245.09;;;-140.56;96.47
10482;BME280;5288;42.334;23.876;2023-06-14T01:08:05;56268.81;;;-140.56;97.59
10482;BME280;5288;42.334;23.876;2023-06-14T01:10:44;56286.59;;;-140.56;98.22
10482;BME280;5288;42.334;23.876;2023-06-14T01:13:20;56262.88;;;-140.56;99.31
10482;BME280;5288;42.334;23.876;2023-06-14T01:15:49;56308.34;;;-140.56;100.00
10482;BME280;5288;42.334;23.876;2023-06-14T01:18:18;56298.44;;;-140.56;100.00
10482;BME280;5288;42.334;23.876;2023-06-14T01:20:46;56326.13;;;-140.56;100.00
10482;BME280;5288;42.334;23.876;2023-06-14T01:23:16;56314.25;;;-140.56;100.00
10482;BME280;5288;42.334;23.876;2023-06-14T01:25:43;56296.47;;;-140.56;100.00
10482;BME280;5288;42.334;23.876;2023-06-14T01:28:13;56304.38;;;-140.56;100.00
10482;BME280;5288;42.334;23.876;2023-06-14T01:30:44;56290.53;;;-140.56;100.00
10482;BME280;5288;42.334;23.876;2023-06-14T01:33:14;56270.78;;;-140.56;100.00
10482;BME280;5288;42.334;23.876;2023-06-14T01:35:44;56278.69;;;-140.56;100.00
10482;BME280;5288;42.334;23.876;2023-06-14T01:38:12;56282.63;;;-140.56;100.00
10482;BME280;5288;42.334;23.876;2023-06-14T01:40:43;56318.22;;;-140.56;100.00
10482;BME280;5288;42.334;23.876;2023-06-14T01:43:11;56229.28;;;-140.56;100.00
10482;BME280;5288;42.334;23.876;2023-06-14T01:45:40;56278.69;;;-140.56;100.00
10482;BME280;5288;42.334;23.876;2023-06-14T01:48:08;56294.50;;;-140.56;100.00
10482;BME280;5288;42.334;23.876;2023-06-14T01:50:35;56286.59;;;-140.56;100.00
10482;BME280;5288;42.334;23.876;2023-06-14T01:53:03;56254.97;;;-140.56;100.00
10482;BME280;5288;42.334;23.876;2023-06-14T01:55:30;56264.84;;;-140.56;100.00
10482;BME280;5288;42.334;23.876;2023-06-14T01:58:04;56233.22;;;-140.56;100.00
10482;BME280;5288;42.334;23.876;2023-06-14T02:00:31;56302.41;;;-140.56;100.00
10482;BME280;5288;42.334;23.876;2023-06-14T02:02:58;56264.84;;;-140.56;100.00
10482;BME280;5288;42.334;23.876;2023-06-14T02:05:25;56262.88;;;-140.56;100.00
10482;BME280;5288;42.334;23.876;2023-06-14T02:07:52;56278.69;;;-140.56;99.54
10482;BME280;5288;42.334;23.876;2023-06-14T02:10:20;56270.78;;;-140.56;98.40
10482;BME280;5288;42.334;23.876;2023-06-14T02:12:47;56280.66;;;-140.56;98.03
10482;BME280;5288;42.334;23.876;2023-06-14T02:15:17;56272.75;;;-140.56;98.12
10482;BME280;5288;42.334;23.876;2023-06-14T02:17:45;56253.00;;;-140.56;97.99
10482;BME280;5288;42.334;23.876;2023-06-14T02:20:12;56241.13;;;-140.56;98.07
10482;BME280;5288;42.334;23.876;2023-06-14T02:22:40;56237.19;;;-140.56;97.44
10482;BME280;5288;42.334;23.876;2023-06-14T02:25:07;56249.03;;;-140.56;97.15
10482;BME280;5288;42.334;23.876;2023-06-14T02:27:35;56239.16;;;-140.56;96.87
10482;BME280;5288;42.334;23.876;2023-06-14T02:30:02;56260.91;;;-140.56;96.57
10482;BME280;5288;42.334;23.876;2023-06-14T02:32:31;56254.97;;;-140.56;96.47
10482;BME280;5288;42.334;23.876;2023-06-14T02:34:59;56282.63;;;-140.56;96.20
10482;BME280;5288;42.334;23.876;2023-06-14T02:37:26;56239.16;;;-140.56;96.50
10482;BME280;5288;42.334;23.876;2023-06-14T02:39:53;56235.22;;;-140.56;97.03
10482;BME280;5288;42.334;23.876;2023-06-14T02:42:21;56254.97;;;-140.56;96.62
10482;BME280;5288;42.334;23.876;2023-06-14T02:44:48;56282.63;;;-140.56;96.32
10482;BME280;5288;42.334;23.876;2023-06-14T02:47:16;56274.72;;;-140.56;96.18
10482;BME280;5288;42.334;23.876;2023-06-14T02:49:45;56296.47;;;-140.56;96.23
10482;BME280;5288;42.334;23.876;2023-06-14T02:52:12;56243.13;;;-140.56;96.59
10482;BME280;5288;42.334;23.876;2023-06-14T02:54:39;56207.53;;;-140.56;96.71
10482;BME280;5288;42.334;23.876;2023-06-14T02:57:07;56274.72;;;-140.56;96.15
10482;BME280;5288;42.334;23.876;2023-06-14T02:59:34;56254.97;;;-140.56;95.93
10482;BME280;5288;42.334;23.876;2023-06-14T03:02:01;56253.00;;;-140.56;95.28
10482;BME280;5288;42.334;23.876;2023-06-14T03:04:28;56264.84;;;-140.56;94.87
10482;BME280;5288;42.334;23.876;2023-06-14T03:07:04;56256.94;;;-140.56;95.05
10482;BME280;5288;42.334;23.876;2023-06-14T03:09:35;56253.00;;;-140.56;95.40
10482;BME280;5288;42.334;23.876;2023-06-14T03:12:04;56233.22;;;-140.56;95.42
10482;BME280;5288;42.334;23.876;2023-06-14T03:14:31;56245.09;;;-140.56;95.09
10482;BME280;5288;42.334;23.876;2023-06-14T03:16:58;56254.97;;;-140.56;95.06
10482;BME280;5288;42.334;23.876;2023-06-14T03:19:26;56268.81;;;-140.56;95.07
10482;BME280;5288;42.334;23.876;2023-06-14T03:21:53;56233.22;;;-140.56;94.67
10482;BME280;5288;42.334;23.876;2023-06-14T03:24:24;56233.22;;;-140.56;94.59
10482;BME280;5288;42.334;23.876;2023-06-14T03:26:52;56258.94;;;-140.56;94.71
10482;BME280;5288;42.334;23.876;2023-06-14T03:29:19;56249.03;;;-140.56;95.52
10482;BME280;5288;42.334;23.876;2023-06-14T03:31:57;56254.97;;;-140.56;96.40
10482;BME280;5288;42.334;23.876;2023-06-14T03:34:24;56239.16;;;-140.56;96.28
10482;BME280;5288;42.334;23.876;2023-06-14T03:36:51;56237.19;;;-140.56;96.79
10482;BME280;5288;42.334;23.876;2023-06-14T03:39:18;56247.06;;;-140.56;96.58
10482;BME280;5288;42.334;23.876;2023-06-14T03:41:47;56253.00;;;-140.56;97.05
10482;BME280;5288;42.334;23.876;2023-06-14T03:44:16;56270.78;;;-140.56;98.31
10482;BME280;5288;42.334;23.876;2023-06-14T03:46:47;56258.94;;;-140.56;97.35
10482;BME280;5288;42.334;23.876;2023-06-14T03:49:17;56268.81;;;-140.56;96.40
10482;BME280;5288;42.334;23.876;2023-06-14T03:51:44;56258.94;;;-140.56;96.68
10482;BME280;5288;42.334;23.876;2023-06-14T03:54:11;56249.03;;;-140.56;97.23
10482;BME280;5288;42.334;23.876;2023-06-14T03:56:38;56251.03;;;-140.56;98.72
10482;BME280;5288;42.334;23.876;2023-06-14T03:59:06;56276.72;;;-140.56;100.00
10482;BME280;5288;42.334;23.876;2023-06-14T04:01:33;56292.53;;;-140.56;100.00
10482;BME280;5288;42.334;23.876;2023-06-14T04:04:00;56274.72;;;-140.56;100.00
10482;BME280;5288;42.334;23.876;2023-06-14T04:06:27;56290.53;;;-140.56;100.00
10482;BME280;5288;42.334;23.876;2023-06-14T04:08:58;56274.72;;;-140.56;100.00
10482;BME280;5288;42.334;23.876;2023-06-14T04:11:28;56298.44;;;-140.56;100.00
10482;BME280;5288;42.334;23.876;2023-06-14T04:13:55;56270.78;;;-140.56;100.00
10482;BME280;5288;42.334;23.876;2023-06-14T04:16:24;56280.66;;;-140.56;100.00
10482;BME280;5288;42.334;23.876;2023-06-14T04:18:51;56278.69;;;-140.56;100.00
10482;BME280;5288;42.334;23.876;2023-06-14T04:21:18;56280.66;;;-140.56;100.00
10482;BME280;5288;42.334;23.876;2023-06-14T04:23:46;56272.75;;;-140.56;100.00
10482;BME280;5288;42.334;23.876;2023-06-14T04:26:13;56211.50;;;-140.56;100.00
10482;BME280;5288;42.334;23.876;2023-06-14T04:28:41;56294.50;;;-140.56;100.00
10482;BME280;5288;42.334;23.876;2023-06-14T04:31:10;56258.94;;;-140.56;100.00
10482;BME280;5288;42.334;23.876;2023-06-14T04:33:39;56254.97;;;-140.56;100.00
10482;BME280;5288;42.334;23.876;2023-06-14T04:36:09;56276.72;;;-140.56;99.60
10482;BME280;5288;42.334;23.876;2023-06-14T04:38:37;56262.88;;;-140.56;99.60
10482;BME280;5288;42.334;23.876;2023-06-14T04:41:04;56284.63;;;-140.56;97.56
10482;BME280;5288;42.334;23.876;2023-06-14T04:43:31;56254.97;;;-140.56;96.24
10482;BME280;5288;42.334;23.876;2023-06-14T04:46:04;56253.00;;;-140.56;95.99
10482;BME280;5288;42.334;23.876;2023-06-14T04:48:36;56253.00;;;-140.56;95.16
10482;BME280;5288;42.334;23.876;2023-06-14T04:51:08;56294.50;;;-140.56;94.44
10482;BME280;5288;42.334;23.876;2023-06-14T04:53:35;56270.78;;;-140.56;94.61
10482;BME280;5288;42.334;23.876;2023-06-14T04:56:03;56241.13;;;-140.56;94.53
10482;BME280;5288;42.334;23.876;2023-06-14T04:58:30;56231.25;;;-140.56;94.13
10482;BME280;5288;42.334;23.876;2023-06-14T05:00:57;56251.03;;;-140.56;93.58
10482;BME280;5288;42.334;23.876;2023-06-14T05:03:24;56256.94;;;-140.56;92.95
10482;BME280;5288;42.334;23.876;2023-06-14T05:05:52;56245.09;;;-140.56;92.96
10482;BME280;5288;42.334;23.876;2023-06-14T05:08:22;56254.97;;;-140.56;92.54
10482;BME280;5288;42.334;23.876;2023-06-14T05:10:50;56249.03;;;-140.56;92.10
10482;BME280;5288;42.334;23.876;2023-06-14T05:13:17;56223.34;;;-140.56;91.30
10482;BME280;5288;42.334;23.876;2023-06-14T05:15:44;56231.25;;;-140.56;91.07
10482;BME280;5288;42.334;23.876;2023-06-14T05:18:11;56241.13;;;-140.56;91.18
10482;BME280;5288;42.334;23.876;2023-06-14T05:20:38;56225.31;;;-140.56;90.79
10482;BME280;5288;42.334;23.876;2023-06-14T05:23:07;56235.22;;;-140.56;90.25
10482;BME280;5288;42.334;23.876;2023-06-14T05:25:35;56219.41;;;-140.56;89.95
10482;BME280;5288;42.334;23.876;2023-06-14T05:28:03;56231.25;;;-140.56;89.56
10482;BME280;5288;42.334;23.876;2023-06-14T05:30:30;56225.31;;;-140.56;89.31
10482;BME280;5288;42.334;23.876;2023-06-14T05:32:58;56235.22;;;-140.56;88.91
10482;BME280;5288;42.334;23.876;2023-06-14T05:35:25;56227.31;;;-140.56;89.27
10482;BME280;5288;42.334;23.876;2023-06-14T05:37:53;56245.09;;;-140.56;89.61
10482;BME280;5288;42.334;23.876;2023-06-14T05:40:20;56243.13;;;-140.56;89.03
10482;BME280;5288;42.334;23.876;2023-06-14T05:42:49;56233.22;;;-140.56;88.04
10482;BME280;5288;42.334;23.876;2023-06-14T05:45:16;56243.13;;;-140.56;86.66
10482;BME280;5288;42.334;23.876;2023-06-14T05:47:43;56235.22;;;-140.56;85.63
10482;BME280;5288;42.334;23.876;2023-06-14T05:50:10;56231.25;;;-140.56;85.44
10482;BME280;5288;42.334;23.876;2023-06-14T05:52:37;56221.38;;;-140.56;85.19
10482;BME280;5288;42.334;23.876;2023-06-14T05:55:04;56207.53;;;-140.56;84.67
10482;BME280;5288;42.334;23.876;2023-06-14T05:57:32;56189.75;;;-140.56;84.88
10482;BME280;5288;42.334;23.876;2023-06-14T06:00:00;56221.38;;;-140.56;83.48
10482;BME280;5288;42.334;23.876;2023-06-14T06:02:31;56203.59;;;-140.56;82.77
10482;BME280;5288;42.334;23.876;2023-06-14T06:04:58;56221.38;;;-140.56;81.57
10482;BME280;5288;42.334;23.876;2023-06-14T06:07:25;56221.38;;;-140.56;81.24
10482;BME280;5288;42.334;23.876;2023-06-14T06:09:52;56197.66;;;-140.56;80.26
10482;BME280;5288;42.334;23.876;2023-06-14T06:12:19;56195.69;;;-140.56;79.58
10482;BME280;5288;42.334;23.876;2023-06-14T06:14:46;56193.72;;;-140.56;78.86
10482;BME280;5288;42.334;23.876;2023-06-14T06:17:14;56191.72;;;-140.56;77.28
10482;BME280;5288;42.334;23.876;2023-06-14T06:19:41;56187.78;;;-140.56;77.37
10482;BME280;5288;42.334;23.876;2023-06-14T06:22:08;56211.50;;;-140.56;76.45
10482;BME280;5288;42.334;23.876;2023-06-14T06:24:35;56211.50;;;-140.56;76.11
10482;BME280;5288;42.334;23.876;2023-06-14T06:27:02;56189.75;;;-140.56;76.62
10482;BME280;5288;42.334;23.876;2023-06-14T06:29:29;56199.63;;;-140.56;76.48
10482;BME280;5288;42.334;23.876;2023-06-14T06:31:56;56211.50;;;-140.56;76.51
10482;BME280;5288;42.334;23.876;2023-06-14T06:34:24;56201.63;;;-140.56;76.80
10482;BME280;5288;42.334;23.876;2023-06-14T06:36:51;56177.91;;;-140.56;76.81
10482;BME280;5288;42.334;23.876;2023-06-14T06:39:18;56170.00;;;-140.56;76.96
10482;BME280;5288;42.334;23.876;2023-06-14T06:41:46;56181.84;;;-140.56;76.29
10482;BME280;5288;42.334;23.876;2023-06-14T06:44:13;56164.06;;;-140.56;76.04
10482;BME280;5288;42.334;23.876;2023-06-14T06:46:40;56154.19;;;-140.56;74.85
10482;BME280;5288;42.334;23.876;2023-06-14T06:49:08;56173.94;;;-140.56;75.94
10482;BME280;5288;42.334;23.876;2023-06-14T06:51:41;56148.25;;;-140.56;75.54
10482;BME280;5288;42.334;23.876;2023-06-14T06:54:08;56197.66;;;-140.56;74.07
10482;BME280;5288;42.334;23.876;2023-06-14T06:56:36;56185.81;;;-140.56;72.53
10482;BME280;5288;42.334;23.876;2023-06-14T06:59:03;56175.91;;;-140.56;73.03
10482;BME280;5288;42.334;23.876;2023-06-14T07:01:30;56173.94;;;-140.56;72.04
10482;BME280;5288;42.334;23.876;2023-06-14T07:03:59;56154.19;;;-140.56;72.11
10482;BME280;5288;42.334;23.876;2023-06-14T07:06:26;56175.91;;;-140.56;71.38
10482;BME280;5288;42.334;23.876;2023-06-14T07:08:54;56154.19;;;-140.56;71.48
10482;BME280;5288;42.334;23.876;2023-06-14T07:11:26;56138.38;;;-140.56;70.77
10482;BME280;5288;42.334;23.876;2023-06-14T07:13:53;56134.41;;;-140.56;70.27
10482;BME280;5288;42.334;23.876;2023-06-14T07:16:20;56134.41;;;-140.56;70.46
10482;BME280;5288;42.334;23.876;2023-06-14T07:18:47;56150.22;;;-140.56;70.43
10482;BME280;5288;42.334;23.876;2023-06-14T07:21:14;56168.00;;;-140.56;70.74
10482;BME280;5288;42.334;23.876;2023-06-14T07:23:41;56150.22;;;-140.56;70.02
10482;BME280;5288;42.334;23.876;2023-06-14T07:26:10;56112.69;;;-140.56;70.50
10482;BME280;5288;42.334;23.876;2023-06-14T07:28:36;56160.13;;;-140.56;70.41
10482;BME280;5288;42.334;23.876;2023-06-14T07:31:03;56171.97;;;-140.56;69.99
10482;BME280;5288;42.334;23.876;2023-06-14T07:33:30;56140.34;;;-140.56;69.16
10482;BME280;5288;42.334;23.876;2023-06-14T07:35:57;56156.16;;;-140.56;69.43
10482;BME280;5288;42.334;23.876;2023-06-14T07:38:24;56128.50;;;-140.56;68.85
10482;BME280;5288;42.334;23.876;2023-06-14T07:40:51;56128.50;;;-140.56;69.33
10482;BME280;5288;42.334;23.876;2023-06-14T07:43:20;56128.50;;;-140.56;68.54
10482;BME280;5288;42.334;23.876;2023-06-14T07:45:47;56150.22;;;-140.56;68.48
10482;BME280;5288;42.334;23.876;2023-06-14T07:48:14;56160.13;;;-140.56;67.89
10482;BME280;5288;42.334;23.876;2023-06-14T07:50:41;56112.69;;;-140.56;68.83
10482;BME280;5288;42.334;23.876;2023-06-14T07:53:08;56128.50;;;-140.56;67.91
10482;BME280;5288;42.334;23.876;2023-06-14T07:55:35;56104.78;;;-140.56;68.78
10482;BME280;5288;42.334;23.876;2023-06-14T07:58:05;56124.53;;;-140.56;69.49
10482;BME280;5288;42.334;23.876;2023-06-14T08:00:34;56120.59;;;-140.56;68.96
10482;BME280;5288;42.334;23.876;2023-06-14T08:03:01;56116.63;;;-140.56;66.66
10482;BME280;5288;42.334;23.876;2023-06-14T08:05:28;56096.88;;;-140.56;68.21
10482;BME280;5288;42.334;23.876;2023-06-14T08:07:55;56152.22;;;-140.56;67.99
10482;BME280;5288;42.334;23.876;2023-06-14T08:10:22;56100.81;;;-140.56;67.95
10482;BME280;5288;42.334;23.876;2023-06-14T08:12:50;56085.00;;;-140.56;67.48
10482;BME280;5288;42.334;23.876;2023-06-14T08:15:17;56083.03;;;-140.56;66.40
10482;BME280;5288;42.334;23.876;2023-06-14T08:17:45;56116.63;;;-140.56;65.75
10482;BME280;5288;42.334;23.876;2023-06-14T08:20:13;56092.91;;;-140.56;63.74
10482;BME280;5288;42.334;23.876;2023-06-14T08:22:42;56128.50;;;-140.56;64.55
10482;BME280;5288;42.334;23.876;2023-06-14T08:25:09;56114.66;;;-140.56;63.51
10482;BME280;5288;42.334;23.876;2023-06-14T08:27:37;56120.59;;;-140.56;64.20
10482;BME280;5288;42.334;23.876;2023-06-14T08:30:05;56096.88;;;-140.56;65.98
10482;BME280;5288;42.334;23.876;2023-06-14T08:32:33;56081.06;;;-140.56;63.58
10482;BME280;5288;42.334;23.876;2023-06-14T08:35:01;56116.63;;;-140.56;60.18
10482;BME280;5288;42.334;23.876;2023-06-14T08:37:28;56073.16;;;-140.56;60.71
10482;BME280;5288;42.334;23.876;2023-06-14T08:39:55;56083.03;;;-140.56;60.07
10482;BME280;5288;42.334;23.876;2023-06-14T08:42:24;56065.25;;;-140.56;59.27
10482;BME280;5288;42.334;23.876;2023-06-14T08:44:51;56067.22;;;-140.56;60.83
10482;BME280;5288;42.334;23.876;2023-06-14T08:47:18;56075.13;;;-140.56;60.81
10482;BME280;5288;42.334;23.876;2023-06-14T08:49:47;56061.31;;;-140.56;60.91
10482;BME280;5288;42.334;23.876;2023-06-14T08:52:19;56045.50;;;-140.56;61.27
10482;BME280;5288;42.334;23.876;2023-06-14T08:54:48;56049.44;;;-140.56;55.39
10482;BME280;5288;42.334;23.876;2023-06-14T08:57:16;56065.25;;;-140.56;55.91
10482;BME280;5288;42.334;23.876;2023-06-14T08:59:47;56029.69;;;-140.56;57.73
10482;BME280;5288;42.334;23.876;2023-06-14T09:02:18;56047.47;;;-140.56;57.85
10482;BME280;5288;42.334;23.876;2023-06-14T09:04:48;56075.13;;;-140.56;60.48
10482;BME280;5288;42.334;23.876;2023-06-14T09:07:18;56053.41;;;-140.56;59.89
10482;BME280;5288;42.334;23.876;2023-06-14T09:09:45;56073.16;;;-140.56;60.18
10482;BME280;5288;42.334;23.876;2023-06-14T09:12:12;56085.00;;;-140.56;60.90
10482;BME280;5288;42.334;23.876;2023-06-14T09:14:39;56087.00;;;-140.56;60.76
10482;BME280;5288;42.334;23.876;2023-06-14T09:17:08;56065.25;;;-140.56;59.60
10482;BME280;5288;42.334;23.876;2023-06-14T09:19:35;56049.44;;;-140.56;63.63
10482;BME280;5288;42.334;23.876;2023-06-14T09:22:03;56071.19;;;-140.56;63.54
10482;BME280;5288;42.334;23.876;2023-06-14T09:24:32;56073.16;;;-140.56;60.66
10482;BME280;5288;42.334;23.876;2023-06-14T09:26:59;56035.63;;;-140.56;59.43
10482;BME280;5288;42.334;23.876;2023-06-14T09:29:26;56059.31;;;-140.56;55.44
10482;BME280;5288;42.334;23.876;2023-06-14T09:31:53;56029.69;;;-140.56;54.45
10482;BME280;5288;42.334;23.876;2023-06-14T09:34:21;56004.00;;;-140.56;53.80
10482;BME280;5288;42.334;23.876;2023-06-14T09:36:49;56041.53;;;-140.56;54.78
10482;BME280;5288;42.334;23.876;2023-06-14T09:39:17;55966.44;;;-140.56;52.44
10482;BME280;5288;42.334;23.876;2023-06-14T09:41:46;56004.00;;;-140.56;48.43
10482;BME280;5288;42.334;23.876;2023-06-14T09:44:13;55976.31;;;-140.56;48.95
10482;BME280;5288;42.334;23.876;2023-06-14T09:46:40;55992.13;;;-140.56;50.86
10482;BME280;5288;42.334;23.876;2023-06-14T09:49:08;55948.66;;;-140.56;49.92
10482;BME280;5288;42.334;23.876;2023-06-14T09:51:36;55978.31;;;-140.56;48.93
10482;BME280;5288;42.334;23.876;2023-06-14T09:54:14;55992.13;;;-140.56;51.78
10482;BME280;5288;42.334;23.876;2023-06-14T09:56:45;55942.72;;;-140.56;52.79
10482;BME280;5288;42.334;23.876;2023-06-14T09:59:16;55954.59;;;-140.56;53.88
10482;BME280;5288;42.334;23.876;2023-06-14T10:01:47;55972.38;;;-140.56;53.03
10482;BME280;5288;42.334;23.876;2023-06-14T10:04:15;56013.88;;;-140.56;54.56
10482;BME280;5288;42.334;23.876;2023-06-14T10:06:47;55974.34;;;-140.56;53.97
10482;BME280;5288;42.334;23.876;2023-06-14T10:09:14;56002.00;;;-140.56;54.42
10482;BME280;5288;42.334;23.876;2023-06-14T10:11:42;56011.91;;;-140.56;54.76
10482;BME280;5288;42.334;23.876;2023-06-14T10:14:12;56017.81;;;-140.56;53.82
10482;BME280;5288;42.334;23.876;2023-06-14T10:16:45;56017.81;;;-140.56;56.77
10482;BME280;5288;42.334;23.876;2023-06-14T10:19:18;56035.63;;;-140.56;57.96
10482;BME280;5288;42.334;23.876;2023-06-14T10:21:54;56023.75;;;-140.56;57.38
10482;BME280;5288;42.334;23.876;2023-06-14T10:24:29;55994.13;;;-140.56;55.56
10482;BME280;5288;42.334;23.876;2023-06-14T10:26:58;56015.84;;;-140.56;55.21
10482;BME280;5288;42.334;23.876;2023-06-14T10:29:27;56041.53;;;-140.56;54.71
10482;BME280;5288;42.334;23.876;2023-06-14T10:31:58;56023.75;;;-140.56;53.42
10482;BME280;5288;42.334;23.876;2023-06-14T10:34:26;56009.91;;;-140.56;53.64
10482;BME280;5288;42.334;23.876;2023-06-14T10:37:01;56025.72;;;-140.56;53.25
10482;BME280;5288;42.334;23.876;2023-06-14T10:39:30;56009.91;;;-140.56;53.37
10482;BME280;5288;42.334;23.876;2023-06-14T10:41:57;55966.44;;;-140.56;52.91
10482;BME280;5288;42.334;23.876;2023-06-14T10:44:38;55994.13;;;-140.56;51.29
10482;BME280;5288;42.334;23.876;2023-06-14T10:47:08;55974.34;;;-140.56;49.62
10482;BME280;5288;42.334;23.876;2023-06-14T10:49:38;55928.91;;;-140.56;48.92
10482;BME280;5288;42.334;23.876;2023-06-14T10:52:08;55958.53;;;-140.56;49.21
10482;BME280;5288;42.334;23.876;2023-06-14T10:54:37;55938.78;;;-140.56;48.85
10482;BME280;5288;42.334;23.876;2023-06-14T10:57:06;55960.53;;;-140.56;49.00
10482;BME280;5288;42.334;23.876;2023-06-14T10:59:35;55940.75;;;-140.56;47.91
10482;BME280;5288;42.334;23.876;2023-06-14T11:02:20;55948.66;;;-140.56;47.06
10482;BME280;5288;42.334;23.876;2023-06-14T11:04:54;55944.72;;;-140.56;47.83
10482;BME280;5288;42.334;23.876;2023-06-14T11:07:43;55915.06;;;-140.56;45.98
10482;BME280;5288;42.334;23.876;2023-06-14T11:10:22;55936.81;;;-140.56;47.67
10482;BME280;5288;42.334;23.876;2023-06-14T11:12:54;55972.38;;;-140.56;47.41
10482;BME280;5288;42.334;23.876;2023-06-14T11:15:29;55978.31;;;-140.56;47.79
10482;BME280;5288;42.334;23.876;2023-06-14T11:17:56;55948.66;;;-140.56;45.85
10482;BME280;5288;42.334;23.876;2023-06-14T11:20:25;55938.78;;;-140.56;47.23
10482;BME280;5288;42.334;23.876;2023-06-14T11:22:53;55958.53;;;-140.56;48.03
10482;BME280;5288;42.334;23.876;2023-06-14T11:25:20;55911.13;;;-140.56;46.74
10482;BME280;5288;42.334;23.876;2023-06-14T11:27:49;55936.81;;;-140.56;45.50
10482;BME280;5288;42.334;23.876;2023-06-14T11:30:16;55936.81;;;-140.56;46.30
10482;BME280;5288;42.334;23.876;2023-06-14T11:32:47;55956.56;;;-140.56;49.66
10482;BME280;5288;42.334;23.876;2023-06-14T11:35:15;55921.00;;;-140.56;48.64
10482;BME280;5288;42.334;23.876;2023-06-14T11:37:42;55970.41;;;-140.56;48.64
10482;BME280;5288;42.334;23.876;2023-06-14T11:40:11;55976.31;;;-140.56;47.54
10482;BME280;5288;42.334;23.876;2023-06-14T11:42:40;55956.56;;;-140.56;46.51
10482;BME280;5288;42.334;23.876;2023-06-14T11:45:08;55946.69;;;-140.56;46.59
10482;BME280;5288;42.334;23.876;2023-06-14T11:47:36;55940.75;;;-140.56;48.59
10482;BME280;5288;42.334;23.876;2023-06-14T11:50:06;55992.13;;;-140.56;46.93
10482;BME280;5288;42.334;23.876;2023-06-14T11:52:34;55915.06;;;-140.56;46.94
10482;BME280;5288;42.334;23.876;2023-06-14T11:55:02;55897.28;;;-140.56;48.17
10482;BME280;5288;42.334;23.876;2023-06-14T11:57:30;55952.63;;;-140.56;46.60
10482;BME280;5288;42.334;23.876;2023-06-14T12:00:00;55938.78;;;-140.56;47.54
10482;BME280;5288;42.334;23.876;2023-06-14T12:02:31;55891.34;;;-140.56;48.72
10482;BME280;5288;42.334;23.876;2023-06-14T12:05:05;55917.03;;;-140.56;46.16
10482;BME280;5288;42.334;23.876;2023-06-14T12:07:36;55950.63;;;-140.56;45.71
10482;BME280;5288;42.334;23.876;2023-06-14T12:10:07;55915.06;;;-140.56;47.10
10482;BME280;5288;42.334;23.876;2023-06-14T12:12:37;55903.22;;;-140.56;46.27
10482;BME280;5288;42.334;23.876;2023-06-14T12:15:05;55893.34;;;-140.56;44.80
10482;BME280;5288;42.334;23.876;2023-06-14T12:17:34;55917.03;;;-140.56;44.49
10482;BME280;5288;42.334;23.876;2023-06-14T12:20:06;55922.97;;;-140.56;45.80
10482;BME280;5288;42.334;23.876;2023-06-14T12:22:36;55911.13;;;-140.56;44.51
10482;BME280;5288;42.334;23.876;2023-06-14T12:25:04;55883.44;;;-140.56;43.95
10482;BME280;5288;42.334;23.876;2023-06-14T12:27:31;55938.78;;;-140.56;45.21
10482;BME280;5288;42.334;23.876;2023-06-14T12:29:59;55907.16;;;-140.56;46.11
10482;BME280;5288;42.334;23.876;2023-06-14T12:32:26;55934.81;;;-140.56;46.05
10482;BME280;5288;42.334;23.876;2023-06-14T12:34:53;55954.59;;;-140.56;46.10
10482;BME280;5288;42.334;23.876;2023-06-14T12:37:22;55942.72;;;-140.56;44.87
10482;BME280;5288;42.334;23.876;2023-06-14T12:39:49;55905.19;;;-140.56;45.55
10482;BME280;5288;42.334;23.876;2023-06-14T12:42:17;55903.22;;;-140.56;46.95
10482;BME280;5288;42.334;23.876;2023-06-14T12:44:44;55911.13;;;-140.56;45.18